Terminal Aerodrome Forecast
Issued by NWS

Home | Current Version | Previous Version | Text Only | Print | Product List | Glossary On
Versions: 1 2 3 4 5 6 7 8 9 10 11 12 13 14 15
000
FTUS43 KPAH 171700
TAFCGI
TAF
KCGI 171720Z 1718/1818 29010G17KT P6SM SKC
     FM180100 32004KT P6SM SCT040
     FM181500 34009KT P6SM BKN040=

USA.gov is the U.S. government's official web portal to all federal, state and local government web resources and services.